Time;durP1;ratioP1;P1;durP2;ratioP2;P2;SDS_P1;SDS_P2;PMS_P1;PMS_P2;Temp;Humidity;BMP_temperature;BMP_pressure;BME280_temperature;BME280_humidity;BME280_pressure;Samples;Min_cycle;Max_cycle;Signal;HPM_P1;HPM_P2
2022/06/29 00:01:32;;;;;;;13.60;8.38;;;;;;;14.42;100.00;95321.09;5030031;28;20045;-65
2022/06/29 00:03:59;;;;;;;12.35;8.55;;;;;;;14.32;100.00;95321.72;5034866;28;20044;-65
2022/06/29 00:06:26;;;;;;;12.13;8.10;;;;;;;14.32;100.00;95316.47;5035363;28;20048;-65
2022/06/29 00:08:53;;;;;;;11.38;8.65;;;;;;;14.39;100.00;95326.81;5034282;28;20053;-65
2022/06/29 00:11:30;;;;;;;14.43;8.38;;;;;;;14.38;100.00;95314.72;5029914;28;21265;-65
2022/06/29 00:14:24;;;;;;;15.75;9.13;;;;;;;14.38;100.00;95319.19;5039230;28;20049;-65
2022/06/29 00:16:51;;;;;;;18.58;9.68;;;;;;;14.36;100.00;95308.16;5038640;28;20037;-65
2022/06/29 00:19:36;;;;;;;12.98;9.07;;;;;;;14.30;100.00;95305.47;5037648;28;20549;-68
2022/06/29 00:22:04;;;;;;;14.27;8.82;;;;;;;14.30;100.00;95308.06;5032691;28;20513;-65
2022/06/29 00:24:33;;;;;;;13.65;8.90;;;;;;;14.34;100.00;95303.94;5031359;28;20037;-65
2022/06/29 00:27:01;;;;;;;12.30;8.98;;;;;;;14.39;100.00;95310.28;5042657;28;20438;-65
2022/06/29 00:29:28;;;;;;;11.77;8.32;;;;;;;14.35;100.00;95304.75;5042896;28;20037;-65
2022/06/29 00:31:56;;;;;;;16.70;9.40;;;;;;;14.40;100.00;95309.25;5038142;28;20044;-67
2022/06/29 00:34:22;;;;;;;12.77;9.40;;;;;;;14.41;100.00;95298.53;5031126;28;20044;-65
2022/06/29 00:36:49;;;;;;;28.08;11.35;;;;;;;14.45;100.00;95288.34;5037229;28;20048;-64
2022/06/29 00:39:38;;;;;;;13.93;9.30;;;;;;;14.49;100.00;95284.19;5039219;28;20037;-68
2022/06/29 00:42:05;;;;;;;13.50;9.73;;;;;;;14.47;100.00;95281.03;5045149;28;20045;-64
2022/06/29 00:44:32;;;;;;;20.85;9.15;;;;;;;14.42;100.00;95288.81;5031163;28;20045;-65
2022/06/29 00:47:02;;;;;;;16.98;9.68;;;;;;;14.47;100.00;95296.75;5033281;28;20061;-65
2022/06/29 00:49:30;;;;;;;19.85;9.75;;;;;;;14.55;100.00;95293.72;5021118;28;20052;-65
2022/06/29 00:52:09;;;;;;;14.77;9.75;;;;;;;14.53;100.00;95291.34;5044885;28;20055;-65
2022/06/29 00:54:58;;;;;;;18.10;9.55;;;;;;;14.51;100.00;95292.59;5023524;28;20041;-65
2022/06/29 00:57:28;;;;;;;14.75;8.13;;;;;;;14.55;100.00;95293.72;5046345;28;20029;-64
2022/06/29 00:59:58;;;;;;;15.45;8.70;;;;;;;14.52;100.00;95291.56;5039849;28;20076;-65
2022/06/29 01:02:32;;;;;;;14.90;8.00;;;;;;;14.54;100.00;95292.13;5047950;28;20586;-64
2022/06/29 01:05:00;;;;;;;12.20;8.25;;;;;;;14.56;100.00;95292.66;5043085;28;21513;-65
2022/06/29 01:07:29;;;;;;;14.70;7.28;;;;;;;14.58;100.00;95285.38;5036203;28;20432;-64
2022/06/29 01:09:56;;;;;;;18.65;8.68;;;;;;;14.60;100.00;95290.38;5038628;28;20041;-65
2022/06/29 01:12:23;;;;;;;13.52;7.30;;;;;;;14.51;100.00;95287.34;5023819;28;20051;-65
2022/06/29 01:14:51;;;;;;;16.95;7.90;;;;;;;14.48;100.00;95287.88;5048546;28;21353;-66
2022/06/29 01:17:20;;;;;;;19.33;7.45;;;;;;;14.45;100.00;95283.09;5038751;28;20438;-65
2022/06/29 01:19:47;;;;;;;15.25;7.88;;;;;;;14.43;100.00;95290.41;5041583;28;20068;-64
2022/06/29 01:22:21;;;;;;;11.82;6.90;;;;;;;14.41;100.00;95297.75;5049919;28;20082;-68
2022/06/29 01:24:49;;;;;;;17.08;6.97;;;;;;;14.38;100.00;95299.00;5041632;28;20041;-66
2022/06/29 01:27:17;;;;;;;10.02;7.10;;;;;;;14.33;100.00;95297.13;5037672;28;20037;-65
2022/06/29 01:29:45;;;;;;;8.73;6.38;;;;;;;14.33;100.00;95297.13;5044317;28;20053;-66
2022/06/29 01:32:12;;;;;;;14.05;7.07;;;;;;;14.28;100.00;95291.81;5043601;28;20041;-65
2022/06/29 01:35:00;;;;;;;13.43;7.03;;;;;;;14.21;100.00;95293.81;5044276;28;20041;-65
2022/06/29 01:37:27;;;;;;;14.90;7.13;;;;;;;14.10;100.00;95286.88;5036797;28;20029;-65
2022/06/29 01:39:54;;;;;;;7.68;5.95;;;;;;;14.01;100.00;95281.25;5036124;28;20116;-66
2022/06/29 01:42:21;;;;;;;18.77;7.18;;;;;;;13.98;100.00;95283.53;5049128;28;20040;-66
2022/06/29 01:44:55;;;;;;;13.15;8.00;;;;;;;13.84;100.00;95286.47;5048329;28;20048;-65
2022/06/29 01:47:55;;;;;;;10.73;7.03;;;;;;;13.73;100.00;95277.69;5037684;28;20566;-66
2022/06/29 01:50:22;;;;;;;13.02;7.57;;;;;;;13.62;100.00;95280.41;5025333;28;20138;-66
2022/06/29 01:52:49;;;;;;;19.77;8.65;;;;;;;13.60;100.00;95277.25;5039006;28;20037;-66
2022/06/29 01:55:17;;;;;;;15.95;7.63;;;;;;;13.61;100.00;95279.59;5036780;28;20052;-66
2022/06/29 01:57:47;;;;;;;11.07;7.30;;;;;;;13.58;100.00;95275.63;5044851;28;20041;-65
2022/06/29 02:00:28;;;;;;;15.32;7.95;;;;;;;13.52;100.00;95271.38;5040554;28;20044;-65
2022/06/29 02:02:54;;;;;;;16.10;7.70;;;;;;;13.51;100.00;95275.00;5032163;28;20328;-65
2022/06/29 02:05:21;;;;;;;16.92;8.52;;;;;;;13.52;100.00;95276.59;5021765;28;20049;-65
2022/06/29 02:07:48;;;;;;;19.88;7.82;;;;;;;13.47;100.00;95273.91;5040841;28;20044;-65
2022/06/29 02:10:15;;;;;;;16.73;7.28;;;;;;;13.42;100.00;95281.66;5020404;28;20049;-65
2022/06/29 02:12:42;;;;;;;14.43;8.75;;;;;;;13.37;100.00;95281.59;5046266;28;20052;-65
2022/06/29 02:15:36;;;;;;;16.05;8.70;;;;;;;13.38;100.00;95270.09;5044980;28;20057;-65
2022/06/29 02:18:03;;;;;;;20.33;8.93;;;;;;;13.39;100.00;95274.28;5032977;28;20041;-65
2022/06/29 02:20:30;;;;;;;18.20;8.70;;;;;;;13.34;100.00;95271.59;5032799;28;20045;-65
2022/06/29 02:22:57;;;;;;;15.63;8.90;;;;;;;13.35;100.00;95260.09;5040672;28;20415;-65
2022/06/29 02:25:56;;;;;;;17.33;9.20;;;;;;;13.40;100.00;95257.56;5040593;28;20044;-65
2022/06/29 02:28:23;;;;;;;19.20;9.02;;;;;;;13.39;100.00;95255.97;5043401;28;20040;-65
2022/06/29 02:37:11;;;;;;;23.48;8.75;;;;;;;13.46;100.00;95251.38;5012036;28;20158;-66
2022/06/29 02:39:48;;;;;;;17.65;9.77;;;;;;;13.51;100.00;95248.84;5040419;28;20045;-66
2022/06/29 02:42:15;;;;;;;17.13;8.80;;;;;;;13.53;100.00;95246.78;5034922;28;20138;-66
2022/06/29 02:44:44;;;;;;;26.85;9.80;;;;;;;13.49;100.00;95245.66;5040664;28;20136;-65
2022/06/29 02:47:11;;;;;;;13.48;8.90;;;;;;;13.46;100.00;95240.13;5044284;28;20053;-65
2022/06/29 02:49:38;;;;;;;15.07;9.30;;;;;;;13.44;100.00;95237.75;5037267;28;20056;-65
2022/06/29 02:52:05;;;;;;;19.02;8.27;;;;;;;13.41;100.00;95235.59;5041454;28;20775;-65
2022/06/29 02:54:36;;;;;;;18.08;8.52;;;;;;;13.47;100.00;95231.22;5036658;28;20048;-65
2022/06/29 02:57:03;;;;;;;13.75;8.50;;;;;;;13.44;100.00;95237.75;5035944;28;20033;-65
2022/06/29 02:59:30;;;;;;;20.13;9.15;;;;;;;13.48;100.00;95233.59;5037865;28;20049;-65
2022/06/29 03:01:57;;;;;;;18.80;9.77;;;;;;;13.47;100.00;95237.28;5036236;28;20522;-66
2022/06/29 03:04:23;;;;;;;19.15;9.13;;;;;;;13.34;100.00;95212.22;5034381;28;20038;-66
2022/06/29 03:06:50;;;;;;;21.38;9.73;;;;;;;13.50;100.00;95236.78;5037372;28;20065;-65
2022/06/29 03:09:18;;;;;;;12.73;9.13;;;;;;;13.54;100.00;95237.91;5043515;28;20060;-65
2022/06/29 03:11:44;;;;;;;12.52;8.50;;;;;;;13.51;100.00;95233.13;5036618;28;20044;-65
2022/06/29 03:14:11;;;;;;;18.73;10.10;;;;;;;13.56;100.00;95235.84;5033170;28;20045;-65
2022/06/29 03:16:39;;;;;;;17.40;8.32;;;;;;;13.52;100.00;95229.50;5035387;28;20049;-65
2022/06/29 03:19:07;;;;;;;23.20;10.02;;;;;;;13.60;100.00;95236.16;5034070;28;20057;-65
2022/06/29 03:21:33;;;;;;;18.25;8.88;;;;;;;13.62;100.00;95228.06;5017966;28;20045;-65
2022/06/29 03:24:03;;;;;;;20.65;8.73;;;;;;;13.64;100.00;95231.22;5039844;28;20045;-65
2022/06/29 03:26:31;;;;;;;15.27;8.02;;;;;;;13.61;100.00;95226.47;5040863;28;20044;-65
2022/06/29 03:28:57;;;;;;;14.68;8.68;;;;;;;13.63;100.00;95229.63;5037958;28;20137;-65
2022/06/29 03:31:24;;;;;;;13.70;8.82;;;;;;;13.68;100.00;95232.31;5043125;28;20049;-66
2022/06/29 03:33:51;;;;;;;13.40;8.70;;;;;;;13.74;100.00;95228.78;5046837;28;20042;-66
2022/06/29 03:36:18;;;;;;;25.15;9.00;;;;;;;13.81;100.00;95229.38;5032625;28;20140;-66
2022/06/29 03:38:45;;;;;;;17.80;8.63;;;;;;;13.84;100.00;95215.78;5036655;28;20048;-65
2022/06/29 03:41:44;;;;;;;21.58;10.90;;;;;;;13.88;100.00;95216.91;5039195;28;20059;-65
2022/06/29 03:44:17;;;;;;;14.82;9.27;;;;;;;13.99;100.00;95211.78;5031079;28;20045;-65
2022/06/29 03:46:44;;;;;;;21.20;10.70;;;;;;;14.12;100.00;95221.94;5014314;28;20552;-65
2022/06/29 03:49:23;;;;;;;14.52;9.35;;;;;;;14.24;100.00;95214.75;5029429;28;20057;-65
2022/06/29 03:51:50;;;;;;;17.83;9.45;;;;;;;14.34;100.00;95214.84;5034510;28;20048;-65
2022/06/29 03:54:23;;;;;;;17.40;10.10;;;;;;;14.47;100.00;95216.28;5037061;28;20048;-66
2022/06/29 03:57:04;;;;;;;27.15;10.02;;;;;;;14.60;100.00;95216.97;5035039;28;20100;-66
2022/06/29 04:00:17;;;;;;;28.55;8.52;;;;;;;14.76;100.00;95210.06;5027483;28;20067;-66
2022/06/29 04:06:03;;;;;;;16.85;8.88;;;;;;;15.04;100.00;95212.44;5094093;27;20136;-68
2022/06/29 04:08:29;;;;;;;15.75;10.60;;;;;;;15.12;100.00;95213.03;5075303;27;20043;-69
2022/06/29 04:10:56;;;;;;;13.48;9.88;;;;;;;15.17;100.00;95210.44;5075808;28;20732;-68
2022/06/29 04:13:23;;;;;;;16.40;9.00;;;;;;;15.28;100.00;95225.22;5076582;28;20048;-69
2022/06/29 04:15:50;;;;;;;22.10;10.85;;;;;;;15.31;100.00;95216.06;5075213;28;20083;-69
2022/06/29 04:18:18;;;;;;;24.23;10.48;;;;;;;15.46;100.00;95224.81;5076590;28;20132;-69
2022/06/29 04:23:30;;;;;;;15.60;9.57;;;;;;;15.53;100.00;95229.09;5077135;28;20040;-69
2022/06/29 04:25:57;;;;;;;16.38;7.90;;;;;;;15.42;100.00;95222.97;5084477;28;20051;-70
2022/06/29 04:28:27;;;;;;;18.13;9.85;;;;;;;15.43;100.00;95225.34;5081594;28;20048;-70
2022/06/29 04:30:54;;;;;;;24.83;10.60;;;;;;;15.35;100.00;95222.38;5077084;28;20048;-71
2022/06/29 04:33:21;;;;;;;21.40;9.05;;;;;;;15.40;100.00;95220.59;5078952;28;20543;-67
2022/06/29 04:35:47;;;;;;;18.05;10.63;;;;;;;15.40;100.00;95225.84;5079786;28;20035;-68
2022/06/29 04:38:14;;;;;;;24.23;9.68;;;;;;;15.53;100.00;95218.59;5076325;28;20051;-69
2022/06/29 04:40:42;;;;;;;22.80;11.18;;;;;;;15.67;100.00;95220.50;5074780;27;20063;-69
2022/06/29 04:43:08;;;;;;;20.77;10.85;;;;;;;15.83;100.00;95218.81;5084238;28;20708;-68
2022/06/29 04:48:21;;;;;;;17.65;10.88;;;;;;;16.12;100.00;95215.78;5080132;28;20040;-69
2022/06/29 04:50:47;;;;;;;22.58;12.43;;;;;;;16.21;100.00;95201.13;5081279;28;20035;-69
2022/06/29 04:53:14;;;;;;;20.38;11.02;;;;;;;16.44;100.00;95209.63;5081686;28;20047;-75
2022/06/29 04:55:41;;;;;;;23.90;12.55;;;;;;;16.66;100.00;95224.41;5076263;28;20028;-66
2022/06/29 04:58:08;;;;;;;23.65;12.80;;;;;;;16.87;100.00;95226.06;5078996;28;20045;-67
2022/06/29 05:00:35;;;;;;;22.33;12.63;;;;;;;17.11;100.00;95210.56;5080942;28;20044;-67
2022/06/29 05:03:02;;;;;;;19.02;12.05;;;;;;;17.29;100.00;95222.41;5077907;28;20055;-76
2022/06/29 05:05:29;;;;;;;15.60;10.35;;;;;;;17.33;100.00;95198.97;5079435;28;20048;-76
2022/06/29 05:07:56;;;;;;;15.13;11.05;;;;;;;17.56;100.00;95210.81;5079776;28;20135;-71
2022/06/29 05:10:23;;;;;;;16.73;12.25;;;;;;;17.68;100.00;95200.78;5084093;28;20083;-72
2022/06/29 05:12:50;;;;;;;24.75;13.18;;;;;;;17.89;100.00;95219.22;5073284;28;20144;-66
2022/06/29 05:15:17;;;;;;;22.63;15.70;;;;;;;17.99;100.00;95221.81;5078316;28;20043;-69
2022/06/29 05:17:45;;;;;;;29.95;17.08;;;;;;;18.02;100.00;95218.63;5058128;28;20036;-74
2022/06/29 05:20:12;;;;;;;24.20;15.45;;;;;;;18.03;100.00;95214.97;5065226;28;20033;-66
2022/06/29 05:22:39;;;;;;;25.10;15.30;;;;;;;18.06;100.00;95214.44;5062762;28;20067;-71
2022/06/29 05:25:06;;;;;;;18.55;13.88;;;;;;;18.11;100.00;95203.06;5065397;28;20079;-68
2022/06/29 05:27:34;;;;;;;27.15;16.48;;;;;;;18.30;100.00;95214.59;5059912;28;20044;-66
2022/06/29 05:30:00;;;;;;;18.38;13.00;;;;;;;18.47;100.00;95214.25;5066254;28;20101;-74
2022/06/29 05:32:29;;;;;;;15.10;10.05;;;;;;;18.57;100.00;95223.97;5074771;28;20048;-73
2022/06/29 05:34:56;;;;;;;16.10;11.15;;;;;;;18.42;100.00;95238.03;5062636;28;20587;-72
2022/06/29 05:37:23;;;;;;;20.90;11.70;;;;;;;18.34;100.00;95235.94;5062115;28;20048;-74
2022/06/29 05:39:50;;;;;;;19.95;11.60;;;;;;;18.46;100.00;95228.50;5060239;28;20522;-72
2022/06/29 05:42:17;;;;;;;20.15;11.68;;;;;;;18.37;100.00;95232.00;5060261;28;20039;-67
2022/06/29 05:44:44;;;;;;;18.83;12.80;;;;;;;18.40;100.00;95224.31;5079009;28;20051;-78
2022/06/29 05:47:11;;;;;;;23.85;13.65;;;;;;;18.19;100.00;95217.56;5079301;28;20051;-75
2022/06/29 05:49:38;;;;;;;20.05;13.00;;;;;;;18.37;100.00;95245.94;5058743;28;20044;-75
2022/06/29 05:52:06;;;;;;;21.10;13.98;;;;;;;18.39;100.00;95248.31;5066757;28;20458;-69
2022/06/29 05:54:33;;;;;;;23.23;15.13;;;;;;;18.40;100.00;95250.69;5066173;28;20037;-74
2022/06/29 05:57:00;;;;;;;24.77;15.98;;;;;;;18.40;100.00;95240.16;5049370;28;20438;-69
2022/06/29 05:59:27;;;;;;;20.70;14.38;;;;;;;18.53;100.00;95250.09;5065205;28;20048;-75
2022/06/29 06:01:54;;;;;;;22.65;15.07;;;;;;;18.61;100.00;95248.75;5065542;28;20505;-77
2022/06/29 06:04:21;;;;;;;19.73;13.70;;;;;;;18.61;100.00;95240.84;5062936;28;20075;-79
2022/06/29 06:06:48;;;;;;;18.60;12.98;;;;;;;18.67;100.00;95254.78;5062494;28;20937;-81
2022/06/29 06:09:15;;;;;;;18.60;13.43;;;;;;;18.71;100.00;95255.84;5098869;27;20055;-81
2022/06/29 06:11:44;;;;;;;19.05;10.18;;;;;;;18.66;100.00;95248.72;5072972;28;20062;-81
2022/06/29 06:14:16;;;;;;;20.30;11.82;;;;;;;18.50;100.00;95237.44;5070008;28;20354;-81
2022/06/29 06:16:44;;;;;;;17.15;10.70;;;;;;;18.58;100.00;95235.31;5061211;28;20509;-80
2022/06/29 06:19:11;;;;;;;18.73;11.80;;;;;;;18.84;100.00;95244.69;5099870;27;20040;-81
2022/06/29 06:21:38;;;;;;;16.90;12.13;;;;;;;18.82;100.00;95225.72;5060721;28;20060;-81
2022/06/29 06:24:05;;;;;;;18.15;10.68;;;;;;;18.98;100.00;95238.81;5059045;28;20247;-81
2022/06/29 06:26:32;;;;;;;16.90;10.82;;;;;;;19.06;100.00;95232.97;5066053;28;20091;-81
2022/06/29 06:29:01;;;;;;;18.63;10.85;;;;;;;19.27;100.00;95241.53;5057616;28;20425;-78
2022/06/29 06:31:28;;;;;;;15.60;11.10;;;;;;;19.36;100.00;95233.81;5061457;28;20040;-78
2022/06/29 06:33:56;;;;;;;12.23;10.10;;;;;;;19.45;100.00;95226.88;5061949;28;20131;-78
2022/06/29 06:36:23;;;;;;;14.38;9.80;;;;;;;19.53;100.00;95228.13;5063215;28;20539;-78
2022/06/29 06:38:50;;;;;;;15.13;10.20;;;;;;;19.72;100.00;95217.66;5058771;28;20439;-79
2022/06/29 06:41:23;;;;;;;15.63;10.32;;;;;;;19.68;100.00;95210.28;5045757;28;20044;-78
2022/06/29 06:43:52;;;;;;;28.65;10.70;;;;;;;19.85;100.00;95214.38;5046046;28;20139;-77
2022/06/29 06:46:20;;;;;;;13.60;9.73;;;;;;;19.99;100.00;95220.56;5063137;28;20036;-78
2022/06/29 06:48:51;;;;;;;15.38;10.10;;;;;;;19.93;100.00;95211.09;5054205;28;20118;-78
2022/06/29 06:51:20;;;;;;;13.13;9.02;;;;;;;19.86;100.00;95229.16;5063189;28;20109;-78
2022/06/29 06:53:48;;;;;;;14.77;10.07;;;;;;;19.96;100.00;95221.13;5081552;28;20040;-78
2022/06/29 06:56:16;;;;;;;15.85;9.50;;;;;;;20.20;100.00;95226.44;5096244;27;20036;-78
2022/06/29 06:58:43;;;;;;;11.35;9.55;;;;;;;20.30;100.00;95220.22;5100098;27;20051;-78
2022/06/29 07:01:17;;;;;;;;;;;;;;;20.41;100.00;95229.59;5067357;28;20050;-78
2022/06/29 07:03:44;;;;;;;11.75;8.30;;;;;;;20.38;100.00;95205.56;5066831;28;19920;-78
2022/06/29 07:06:11;;;;;;;10.77;7.45;;;;;;;20.73;100.00;95212.31;5062180;28;20040;-78
2022/06/29 07:08:39;;;;;;;9.80;8.07;;;;;;;20.93;100.00;95228.97;5064086;28;20052;-78
2022/06/29 07:11:07;;;;;;;9.52;7.32;;;;;;;21.04;100.00;95211.88;5090002;28;20067;-77
2022/06/29 07:13:34;;;;;;;10.57;7.07;;;;;;;21.25;99.80;95232.72;5088246;28;20322;-78
2022/06/29 07:16:05;;;;;;;11.40;7.60;;;;;;;21.40;99.33;95229.84;5073126;28;20046;-78
2022/06/29 07:18:34;;;;;;;9.70;7.60;;;;;;;21.42;97.74;95201.22;5052051;28;20048;-77
2022/06/29 07:21:03;;;;;;;10.65;8.15;;;;;;;21.68;99.45;95229.94;5073232;28;20056;-78
2022/06/29 07:23:30;;;;;;;9.05;7.65;;;;;;;21.87;97.33;95217.41;5072826;28;20036;-78
2022/06/29 07:25:57;;;;;;;11.20;7.43;;;;;;;21.98;95.48;95201.34;5086539;28;20043;-81
2022/06/29 07:28:24;;;;;;;8.82;6.63;;;;;;;21.94;94.28;95204.56;5064887;28;20123;-81
2022/06/29 07:30:51;;;;;;;9.27;7.30;;;;;;;22.09;95.76;95197.41;5101993;27;20124;-78
2022/06/29 07:33:19;;;;;;;10.25;7.05;;;;;;;22.20;94.93;95209.41;5049959;28;20044;-78
2022/06/29 07:35:45;;;;;;;9.73;7.30;;;;;;;22.39;93.27;95200.56;5067597;28;20032;-79
2022/06/29 07:38:14;;;;;;;12.35;6.72;;;;;;;22.45;91.81;95199.38;5070485;28;20040;-78
2022/06/29 07:40:41;;;;;;;15.02;6.75;;;;;;;22.70;90.14;95206.78;5065863;28;20154;-79
2022/06/29 07:43:08;;;;;;;7.50;6.57;;;;;;;22.59;91.03;95189.53;5062839;28;20044;-78
2022/06/29 07:45:35;;;;;;;8.70;6.93;;;;;;;22.74;91.78;95211.50;5067878;28;20040;-78
2022/06/29 07:48:02;;;;;;;13.48;7.25;;;;;;;22.68;90.74;95205.53;5064574;28;20040;-78
2022/06/29 07:50:29;;;;;;;8.07;6.97;;;;;;;22.82;90.38;95202.84;5071336;28;20044;-78
2022/06/29 07:52:56;;;;;;;9.10;6.68;;;;;;;23.13;89.35;95194.22;5060460;28;20053;-79
2022/06/29 07:55:24;;;;;;;12.90;6.35;;;;;;;23.32;86.78;95194.03;5067995;28;20044;-79
2022/06/29 07:57:52;;;;;;;10.73;6.57;;;;;;;23.36;86.56;95174.53;5079556;28;20599;-78
2022/06/29 08:00:19;;;;;;;9.85;5.47;;;;;;;23.65;85.39;95203.28;5064750;28;20123;-78
2022/06/29 08:02:48;;;;;;;9.75;5.32;;;;;;;23.57;81.39;95189.94;5063958;28;20051;-77
2022/06/29 08:05:15;;;;;;;13.20;5.85;;;;;;;23.83;80.48;95208.72;5068266;28;20048;-80
2022/06/29 08:07:42;;;;;;;7.65;5.63;;;;;;;24.10;82.20;95201.66;5063936;28;20511;-78
2022/06/29 08:10:11;;;;;;;8.55;5.60;;;;;;;24.10;73.90;95197.09;5069500;28;20047;-79
2022/06/29 08:12:38;;;;;;;7.35;4.97;;;;;;;24.10;72.72;95197.09;5061608;28;20041;-79
2022/06/29 08:15:05;;;;;;;7.30;4.20;;;;;;;24.29;71.96;95188.06;5066132;28;20036;-78
2022/06/29 08:17:32;;;;;;;5.20;4.28;;;;;;;24.61;69.99;95211.69;5062710;28;20037;-78
2022/06/29 08:20:02;;;;;;;6.55;5.05;;;;;;;24.72;70.22;95203.38;5067521;28;20044;-79
2022/06/29 08:22:30;;;;;;;7.70;5.03;;;;;;;24.73;69.94;95199.63;5067498;28;20473;-79
2022/06/29 08:24:57;;;;;;;6.40;4.90;;;;;;;24.52;71.19;95186.88;5101189;28;20626;-78
2022/06/29 08:27:24;;;;;;;8.40;6.25;;;;;;;24.44;71.55;95211.63;5068076;28;20169;-79
2022/06/29 08:30:12;;;;;;;10.80;5.15;;;;;;;24.49;72.11;95205.34;5084679;28;20556;-78
2022/06/29 08:32:41;;;;;;;9.68;5.07;;;;;;;24.91;73.22;95206.53;5049740;28;20048;-78
2022/06/29 08:35:10;;;;;;;6.47;5.22;;;;;;;25.34;72.35;95205.75;5061915;28;20528;-79
2022/06/29 08:37:38;;;;;;;17.05;6.68;;;;;;;25.43;70.30;95196.97;5038945;22;20104;-65
2022/06/29 08:40:11;;;;;;;13.63;5.22;;;;;;;25.74;67.88;95224.19;5038195;28;20122;-65
2022/06/29 08:42:38;;;;;;;5.93;4.90;;;;;;;26.01;66.73;95222.25;5034652;28;20136;-65
2022/06/29 08:45:06;;;;;;;10.13;5.75;;;;;;;25.93;64.95;95215.09;5033655;28;20450;-65
2022/06/29 08:47:34;;;;;;;5.75;5.10;;;;;;;26.17;64.42;95224.41;5032123;28;20055;-65
2022/06/29 08:50:05;;;;;;;6.82;4.90;;;;;;;25.91;64.76;95215.38;5037755;28;20518;-65
2022/06/29 08:52:40;;;;;;;6.85;5.38;;;;;;;25.98;64.32;95212.22;5037294;28;20047;-65
2022/06/29 08:55:08;;;;;;;5.55;4.57;;;;;;;26.03;63.73;95219.28;5036924;28;20046;-65
2022/06/29 08:57:36;;;;;;;7.20;5.13;;;;;;;26.25;63.89;95220.91;5037167;28;20041;-65
2022/06/29 09:00:05;;;;;;;8.23;4.60;;;;;;;26.46;64.50;95221.72;5040230;28;20049;-65
2022/06/29 09:03:06;;;;;;;6.20;4.75;;;;;;;26.37;63.65;95218.31;5037136;28;20136;-65
2022/06/29 09:05:33;;;;;;;7.57;5.35;;;;;;;26.51;62.91;95218.09;5041320;28;20057;-65
2022/06/29 09:08:00;;;;;;;6.07;4.28;;;;;;;26.67;56.56;95215.69;5037624;28;20052;-65
2022/06/29 09:10:29;;;;;;;7.55;4.55;;;;;;;26.78;55.78;95219.53;5043036;28;20287;-65
2022/06/29 09:13:01;;;;;;;6.43;4.20;;;;;;;26.84;57.96;95215.56;5039799;28;20518;-65
2022/06/29 09:15:36;;;;;;;5.13;4.07;;;;;;;27.35;59.28;95212.03;5041588;28;20156;-65
2022/06/29 09:18:50;;;;;;;5.15;4.50;;;;;;;27.47;55.66;95214.75;5042082;28;20056;-66
2022/06/29 09:21:16;;;;;;;9.70;4.55;;;;;;;27.21;57.36;95213.06;5041543;28;20061;-65
2022/06/29 09:23:45;;;;;;;9.32;4.68;;;;;;;27.50;56.71;95208.75;5041851;28;20039;-65
2022/06/29 09:26:11;;;;;;;13.82;5.03;;;;;;;27.59;58.82;95206.00;5040114;28;20040;-65
2022/06/29 09:28:38;;;;;;;7.82;5.20;;;;;;;27.74;56.68;95201.91;5036802;28;21028;-65
2022/06/29 09:31:06;;;;;;;7.00;4.13;;;;;;;28.12;57.58;95211.56;5041305;28;20518;-66
2022/06/29 09:33:34;;;;;;;7.13;4.80;;;;;;;28.53;54.59;95209.78;5038170;28;20106;-66
2022/06/29 09:36:14;;;;;;;5.50;4.22;;;;;;;28.69;52.27;95207.22;5041398;28;20037;-66
2022/06/29 09:38:41;;;;;;;6.22;4.13;;;;;;;28.88;51.79;95193.19;5041487;28;20033;-65
2022/06/29 09:41:11;;;;;;;8.73;4.25;;;;;;;29.42;49.75;95206.22;5040997;28;20036;-66
2022/06/29 09:43:40;;;;;;;5.22;4.00;;;;;;;29.78;49.86;95195.66;5040652;28;20044;-66
2022/06/29 09:46:11;;;;;;;5.10;4.03;;;;;;;30.19;49.04;95204.34;5040638;28;20643;-66
2022/06/29 09:48:39;;;;;;;7.07;4.45;;;;;;;30.62;46.26;95205.34;5042005;28;21500;-66
2022/06/29 09:54:15;;;;;;;3.97;3.58;;;;;;;31.23;42.51;95203.94;5035612;28;20056;-66
2022/06/29 09:56:49;;;;;;;11.18;3.88;;;;;;;31.57;39.86;95198.84;5039088;28;20045;-66
2022/06/29 10:05:08;;;;;;;5.30;3.67;;;;;;;31.43;39.98;95194.72;5040577;28;20047;-66
2022/06/29 10:07:37;;;;;;;7.25;3.45;;;;;;;31.52;37.90;95185.69;5039533;28;20044;-66
2022/06/29 10:10:10;;;;;;;3.78;3.15;;;;;;;31.78;37.82;95183.06;5045234;28;20059;-66
2022/06/29 10:15:57;;;;;;;3.40;3.10;;;;;;;32.06;39.13;95186.63;5039004;28;19924;-65
2022/06/29 10:18:54;;;;;;;5.72;3.83;;;;;;;32.28;37.75;95190.41;5037762;28;20045;-66
2022/06/29 10:21:27;;;;;;;4.57;3.30;;;;;;;32.53;37.78;95183.47;5035879;28;20038;-66
2022/06/29 10:23:58;;;;;;;4.88;3.45;;;;;;;32.14;36.81;95178.28;5036705;28;20057;-66
2022/06/29 10:26:27;;;;;;;4.35;3.95;;;;;;;32.00;35.09;95184.19;5036435;28;20757;-66
2022/06/29 10:28:55;;;;;;;5.28;3.13;;;;;;;31.96;34.96;95177.19;5038673;28;20135;-66
2022/06/29 10:31:59;;;;;;;6.20;3.10;;;;;;;31.36;36.01;95183.81;5038412;28;20509;-66
2022/06/29 10:34:33;;;;;;;5.03;3.17;;;;;;;31.85;35.33;95176.22;5032886;28;20064;-66
2022/06/29 10:37:05;;;;;;;8.88;3.95;;;;;;;32.34;35.75;95162.00;5037899;28;20053;-66
2022/06/29 10:39:48;;;;;;;3.72;3.30;;;;;;;32.74;35.89;95166.06;5038012;28;20059;-66
2022/06/29 10:45:09;;;;;;;4.13;3.30;;;;;;;32.99;34.38;95163.69;5035829;28;20041;-66
2022/06/29 10:47:36;;;;;;;6.57;3.45;;;;;;;33.00;35.92;95164.44;5039356;28;20033;-66
2022/06/29 10:52:45;;;;;;;11.00;3.65;;;;;;;32.01;36.10;95163.41;5040138;28;20719;-66
2022/06/29 10:55:15;;;;;;;4.20;2.40;;;;;;;31.95;33.08;95164.88;5038036;28;20053;-67
2022/06/29 10:57:44;;;;;;;4.85;2.25;;;;;;;32.34;33.48;95156.63;5037731;28;20040;-66
2022/06/29 11:00:25;;;;;;;9.63;2.92;;;;;;;32.87;29.94;95159.28;5039247;28;20044;-67
2022/06/29 11:02:52;;;;;;;3.67;1.90;;;;;;;33.31;26.12;95161.38;5037934;28;20049;-66
2022/06/29 11:05:20;;;;;;;2.33;1.98;;;;;;;33.33;26.42;95153.69;5035430;28;20052;-67
2022/06/29 11:13:28;;;;;;;4.30;1.63;;;;;;;33.40;24.06;95147.56;5029842;28;20049;-66
2022/06/29 11:16:00;;;;;;;7.57;2.72;;;;;;;31.49;31.47;95097.56;5035909;28;20047;-66
2022/06/29 11:18:32;;;;;;;4.20;2.25;;;;;;;32.38;28.64;95149.38;5036956;28;20041;-66
2022/06/29 11:21:03;;;;;;;3.65;2.40;;;;;;;33.07;28.50;95149.13;5039375;28;20051;-67
2022/06/29 11:23:35;;;;;;;3.13;1.40;;;;;;;33.85;24.01;95148.41;5039501;28;20044;-67
2022/06/29 11:26:04;;;;;;;2.20;1.27;;;;;;;34.47;24.85;95153.09;5037108;28;20037;-67
2022/06/29 11:28:33;;;;;;;1.90;1.38;;;;;;;35.17;22.63;95155.00;5039040;28;20128;-67
2022/06/29 11:31:08;;;;;;;3.17;1.25;;;;;;;35.80;22.88;95158.25;5033688;28;20068;-67
2022/06/29 11:33:42;;;;;;;2.75;1.20;;;;;;;36.33;22.35;95146.63;5034453;28;20037;-68
2022/06/29 11:36:16;;;;;;;2.70;1.38;;;;;;;36.70;21.26;95145.41;5036046;28;20044;-68
2022/06/29 11:38:54;;;;;;;7.03;1.38;;;;;;;36.34;20.34;95144.69;5037819;28;20045;-67
2022/06/29 11:41:26;;;;;;;2.13;1.50;;;;;;;36.09;21.60;95131.16;5036833;28;20056;-67
2022/06/29 11:44:05;;;;;;;2.70;1.73;;;;;;;36.48;22.73;95136.53;5037895;28;20049;-67
2022/06/29 11:46:37;;;;;;;2.22;1.33;;;;;;;36.95;20.94;95141.03;5035338;28;20056;-67
2022/06/29 11:52:03;;;;;;;2.88;0.98;;;;;;;37.20;21.00;95138.22;5034982;28;20775;-67
2022/06/29 11:54:43;;;;;;;3.45;1.65;;;;;;;37.15;22.29;95138.63;5036475;28;20127;-67
2022/06/29 11:57:18;;;;;;;1.77;1.35;;;;;;;37.65;20.88;95139.16;5034747;28;20049;-67
2022/06/29 12:00:06;;;;;;;1.25;1.10;;;;;;;37.87;20.50;95139.75;5036829;28;20054;-67
2022/06/29 12:02:34;;;;;;;4.22;1.52;;;;;;;37.74;21.69;95127.81;5038990;28;20045;-67
2022/06/29 12:05:03;;;;;;;1.42;1.20;;;;;;;37.75;20.57;95137.53;5036586;28;20036;-67
2022/06/29 12:07:30;;;;;;;2.85;1.08;;;;;;;37.20;20.52;95136.28;5040897;28;20071;-67
2022/06/29 12:10:11;;;;;;;2.58;1.40;;;;;;;36.84;21.21;95119.38;5030686;28;20049;-67
2022/06/29 12:13:10;;;;;;;1.58;1.17;;;;;;;37.55;22.02;95133.78;5037992;28;20048;-67
2022/06/29 12:15:37;;;;;;;2.05;1.27;;;;;;;37.44;20.29;95131.88;5037789;28;20037;-67
2022/06/29 12:18:04;;;;;;;2.83;1.20;;;;;;;36.60;21.04;95121.75;5035093;28;20128;-67